»·PEaware :: N148WT KSNA-KONT

N148WT :: KSNA-KONT

FLIGHT INFORMATION

Flight Status: Arrived
Operator: Privately registered:
United States
More flights under this callsign
Pilot: Vlad D. (11271)
Aircraft: Unknown
(B60T)
More flights by this aircraft type
Origin: KSNA John Wayne-Orange Co
United States
Destination: KONT Ontario Intl
United States
More flights between these airports :: More routes between these airports
Route: VFR
File this flight plan on PilotEdge
Remarks:
Altitude:
(Current/Filed)
3,000ft
Speed:
(Current/Filed)
140kts
Departed: 10-May-16 07:07 PM
Arrived: 10-May-16 07:26 PM
Distance/Time
Traveled:
26nm/0:19
Distance/Time
To Go:
Arrived

Flight Plot

Page will automatically refresh every two minutes.


Map Options




Map Legend


Flown Route
Filed Route
Departure Airport
Arrival Airport
Navaid (VOR, NDB)
Fix

Horizontal Profiles

Position Reports

Time Latitude Longitude Heading Altitude Ground
Speed
10-May-16 18:30 33.675128 -117.871693 219 59ft 0kts
10-May-16 18:31 33.675128 -117.871693 219 59ft 0kts
10-May-16 18:32 33.675128 -117.871693 219 59ft 0kts
10-May-16 18:33 33.675128 -117.871693 219 59ft 0kts
10-May-16 18:34 33.675128 -117.871693 219 59ft 0kts
10-May-16 18:35 33.675128 -117.871693 219 59ft 0kts
10-May-16 18:36 33.675127 -117.871693 219 59ft 0kts
10-May-16 18:37 33.675127 -117.871693 219 59ft 0kts
10-May-16 18:38 33.675125 -117.871696 219 59ft 0kts
10-May-16 18:39 33.675122 -117.871698 219 59ft 0kts
10-May-16 18:40 33.675120 -117.871700 219 59ft 0kts
10-May-16 18:41 33.675118 -117.871702 219 59ft 0kts
10-May-16 18:42 33.675116 -117.871704 219 59ft 0kts
10-May-16 18:43 33.675114 -117.871706 219 59ft 0kts
10-May-16 18:44 33.675112 -117.871708 219 59ft 0kts
10-May-16 18:45 33.675110 -117.871710 219 59ft 0kts
10-May-16 18:46 33.675108 -117.871712 219 59ft 0kts
10-May-16 18:47 33.675106 -117.871714 219 59ft 0kts
10-May-16 18:48 33.675104 -117.871717 219 59ft 0kts
10-May-16 18:49 33.675102 -117.871719 219 59ft 0kts
10-May-16 18:50 33.675100 -117.871721 219 59ft 0kts
10-May-16 18:51 33.674882 -117.871625 132 59ft 1kts
10-May-16 18:52 33.674743 -117.871000 28 59ft 4kts
10-May-16 18:53 33.676659 -117.869240 27 59ft 0kts
10-May-16 18:54 33.676659 -117.869240 27 59ft 0kts
10-May-16 18:55 33.676659 -117.869240 27 59ft 0kts
10-May-16 18:56 33.676660 -117.869239 27 59ft 0kts
10-May-16 18:57 33.676663 -117.869237 27 59ft 0kts
10-May-16 18:58 33.676683 -117.869225 26 59ft 0kts
10-May-16 18:59 33.678910 -117.868431 26 59ft 16kts
10-May-16 19:00 33.680815 -117.866370 114 59ft 0kts
10-May-16 19:01 33.680814 -117.866368 114 59ft 0kts
10-May-16 19:02 33.680813 -117.866366 114 59ft 0kts
10-May-16 19:03 33.680813 -117.866364 114 59ft 0kts
10-May-16 19:04 33.680812 -117.866362 114 59ft 0kts
10-May-16 19:05 33.680214 -117.865913 213 59ft 7kts
10-May-16 19:06 33.662268 -117.877882 220 631ft 139kts
10-May-16 19:07 33.670089 -117.915193 343 1815ft 136kts
10-May-16 19:08 33.707370 -117.918903 349 2214ft 134kts
10-May-16 19:09 33.744955 -117.927230 345 2312ft 142kts
10-May-16 19:10 33.784802 -117.935990 345 2304ft 147kts
10-May-16 19:11 33.824959 -117.946500 343 2301ft 147kts
10-May-16 19:12 33.859440 -117.923485 43 2301ft 152kts
10-May-16 19:13 33.886460 -117.883825 60 2377ft 146kts
10-May-16 19:14 33.891113 -117.841360 98 3356ft 135kts
10-May-16 19:15 33.880917 -117.789271 114 3505ft 171kts
10-May-16 19:16 33.884631 -117.740699 29 3513ft 158kts
10-May-16 19:17 33.918537 -117.713388 46 3505ft 139kts
10-May-16 19:18 33.943794 -117.676272 44 2975ft 155kts
10-May-16 19:19 33.976695 -117.648280 25 2487ft 123kts
10-May-16 19:20 34.007229 -117.630562 15 2520ft 131kts
10-May-16 19:21 34.031412 -117.602629 92 2524ft 131kts
10-May-16 19:22 34.027464 -117.563556 97 2487ft 110kts
10-May-16 19:23 34.043706 -117.540147 348 2041ft 134kts
10-May-16 19:24 34.055028 -117.568531 266 1150ft 87kts
10-May-16 19:25 34.054614 -117.589897 175 947ft 4kts
10-May-16 19:26 34.054327 -117.589891 177 947ft 0kts
10-May-16 19:27 34.054324 -117.589891 177 947ft 0kts
10-May-16 19:28 34.054020 -117.589911 198 947ft 3kts
10-May-16 19:29 34.053872 -117.590873 269 947ft 4kts
10-May-16 19:30 34.053874 -117.592420 269 947ft 4kts
10-May-16 19:31 34.053873 -117.594101 269 947ft 5kts
10-May-16 19:32 34.053870 -117.595957 270 947ft 6kts
10-May-16 19:33 34.053876 -117.598356 269 947ft 7kts
10-May-16 19:34 34.053876 -117.600784 269 947ft 7kts
10-May-16 19:35 34.053624 -117.603022 189 947ft 7kts
10-May-16 19:36 34.052441 -117.602705 88 947ft 0kts
10-May-16 19:37 34.052441 -117.602702 88 947ft 0kts
10-May-16 19:38 34.052441 -117.602699 88 947ft 0kts

Navigation Log

Ident Type
Flight plan parsing failed, navigation log unavailable